< < Back
Terminal Aerodrome Forecast


Current Version              Previous Versions:   1  2  3  4  5  6  7  8  9  

Terminal Aerodrome Forecast

578
FTUS42 KFFC 200300 AAB
TAFATL
TAF AMD
KATL 200330Z 2004/2106 VRB03KT P6SM FEW250
     FM201800 22005KT P6SM FEW040 SCT250
     FM210000 27003KT P6SM FEW100 SCT250=



Latest METAR

157
SAUS70 KWBC 200800
MTRATL
METAR KATL 200752Z 00000KT 10SM CLR 11/08 A3010 RMK AO2 SLP189 T01060078
$


USA.gov is the U.S. government's official web portal to all federal, state and local government web resources and services.